sensor_id;sensor_type;location;lat;lon;timestamp;P1;durP1;ratioP1;P2;durP2;ratioP2
43345;SDS011;28937;51.160;4.146;2023-02-15T00:01:23;50.13;;;36.38;;
43345;SDS011;28937;51.160;4.146;2023-02-15T00:03:49;47.63;;;36.88;;
43345;SDS011;28937;51.160;4.146;2023-02-15T00:06:15;47.80;;;37.05;;
43345;SDS011;28937;51.160;4.146;2023-02-15T00:08:41;48.60;;;36.50;;
43345;SDS011;28937;51.160;4.146;2023-02-15T00:11:07;50.15;;;37.33;;
43345;SDS011;28937;51.160;4.146;2023-02-15T00:16:33;55.97;;;38.38;;
43345;SDS011;28937;51.160;4.146;2023-02-15T00:18:59;51.55;;;37.75;;
43345;SDS011;28937;51.160;4.146;2023-02-15T00:21:27;50.92;;;35.60;;
43345;SDS011;28937;51.160;4.146;2023-02-15T00:23:54;47.20;;;35.15;;
43345;SDS011;28937;51.160;4.146;2023-02-15T00:26:21;47.20;;;35.17;;
43345;SDS011;28937;51.160;4.146;2023-02-15T00:28:47;51.10;;;35.13;;
43345;SDS011;28937;51.160;4.146;2023-02-15T00:31:12;50.20;;;36.50;;
43345;SDS011;28937;51.160;4.146;2023-02-15T00:33:38;48.10;;;36.13;;
43345;SDS011;28937;51.160;4.146;2023-02-15T00:36:05;48.63;;;35.65;;
43345;SDS011;28937;51.160;4.146;2023-02-15T00:38:33;50.03;;;34.80;;
43345;SDS011;28937;51.160;4.146;2023-02-15T00:41:00;50.33;;;35.85;;
43345;SDS011;28937;51.160;4.146;2023-02-15T00:43:27;47.47;;;35.42;;
43345;SDS011;28937;51.160;4.146;2023-02-15T00:45:53;46.55;;;34.95;;
43345;SDS011;28937;51.160;4.146;2023-02-15T00:48:20;44.35;;;34.30;;
43345;SDS011;28937;51.160;4.146;2023-02-15T00:50:49;46.88;;;34.22;;
43345;SDS011;28937;51.160;4.146;2023-02-15T00:53:17;46.92;;;35.83;;
43345;SDS011;28937;51.160;4.146;2023-02-15T00:55:43;49.28;;;34.92;;
43345;SDS011;28937;51.160;4.146;2023-02-15T00:58:09;47.53;;;35.40;;
43345;SDS011;28937;51.160;4.146;2023-02-15T01:00:36;46.67;;;33.58;;
43345;SDS011;28937;51.160;4.146;2023-02-15T01:03:03;46.83;;;35.08;;
43345;SDS011;28937;51.160;4.146;2023-02-15T01:05:29;48.63;;;35.38;;
43345;SDS011;28937;51.160;4.146;2023-02-15T01:07:56;45.83;;;34.70;;
43345;SDS011;28937;51.160;4.146;2023-02-15T01:10:22;49.15;;;36.50;;
43345;SDS011;28937;51.160;4.146;2023-02-15T01:12:49;46.13;;;35.75;;
43345;SDS011;28937;51.160;4.146;2023-02-15T01:15:15;47.53;;;34.60;;
43345;SDS011;28937;51.160;4.146;2023-02-15T01:17:42;46.35;;;34.20;;
43345;SDS011;28937;51.160;4.146;2023-02-15T01:20:10;49.85;;;35.17;;
43345;SDS011;28937;51.160;4.146;2023-02-15T01:22:37;48.00;;;34.75;;
43345;SDS011;28937;51.160;4.146;2023-02-15T01:25:03;46.65;;;35.30;;
43345;SDS011;28937;51.160;4.146;2023-02-15T01:27:29;50.53;;;36.08;;
43345;SDS011;28937;51.160;4.146;2023-02-15T01:29:57;53.10;;;37.75;;
43345;SDS011;28937;51.160;4.146;2023-02-15T01:32:23;47.28;;;35.30;;
43345;SDS011;28937;51.160;4.146;2023-02-15T01:34:49;49.42;;;36.00;;
43345;SDS011;28937;51.160;4.146;2023-02-15T01:37:14;50.30;;;36.67;;
43345;SDS011;28937;51.160;4.146;2023-02-15T01:39:40;52.33;;;36.40;;
43345;SDS011;28937;51.160;4.146;2023-02-15T01:42:09;49.60;;;34.70;;
43345;SDS011;28937;51.160;4.146;2023-02-15T01:50:03;52.35;;;36.65;;
43345;SDS011;28937;51.160;4.146;2023-02-15T01:52:49;46.95;;;34.42;;
43345;SDS011;28937;51.160;4.146;2023-02-15T01:55:36;50.20;;;36.92;;
43345;SDS011;28937;51.160;4.146;2023-02-15T01:58:05;48.33;;;35.03;;
43345;SDS011;28937;51.160;4.146;2023-02-15T02:00:31;48.17;;;34.85;;
43345;SDS011;28937;51.160;4.146;2023-02-15T02:02:59;47.97;;;36.45;;
43345;SDS011;28937;51.160;4.146;2023-02-15T02:05:26;49.30;;;36.03;;
43345;SDS011;28937;51.160;4.146;2023-02-15T02:07:53;47.28;;;34.80;;
43345;SDS011;28937;51.160;4.146;2023-02-15T02:10:22;48.15;;;35.72;;
43345;SDS011;28937;51.160;4.146;2023-02-15T02:12:49;49.45;;;36.08;;
43345;SDS011;28937;51.160;4.146;2023-02-15T02:18:14;43.00;;;32.45;;
43345;SDS011;28937;51.160;4.146;2023-02-15T02:42:13;43.08;;;33.38;;
43345;SDS011;28937;51.160;4.146;2023-02-15T02:44:48;46.95;;;33.45;;
43345;SDS011;28937;51.160;4.146;2023-02-15T02:47:30;44.60;;;34.28;;
43345;SDS011;28937;51.160;4.146;2023-02-15T02:50:06;46.03;;;34.65;;
43345;SDS011;28937;51.160;4.146;2023-02-15T02:55:03;42.45;;;32.30;;
43345;SDS011;28937;51.160;4.146;2023-02-15T02:57:37;45.88;;;34.38;;
43345;SDS011;28937;51.160;4.146;2023-02-15T03:00:09;46.08;;;33.97;;
43345;SDS011;28937;51.160;4.146;2023-02-15T03:02:38;42.10;;;33.30;;
43345;SDS011;28937;51.160;4.146;2023-02-15T03:05:09;44.58;;;33.20;;
43345;SDS011;28937;51.160;4.146;2023-02-15T03:07:40;43.40;;;33.85;;
43345;SDS011;28937;51.160;4.146;2023-02-15T03:10:08;45.15;;;34.13;;
43345;SDS011;28937;51.160;4.146;2023-02-15T03:12:35;43.47;;;33.45;;
43345;SDS011;28937;51.160;4.146;2023-02-15T03:15:21;47.22;;;35.20;;
43345;SDS011;28937;51.160;4.146;2023-02-15T03:17:51;47.75;;;34.78;;
43345;SDS011;28937;51.160;4.146;2023-02-15T03:20:24;47.78;;;34.92;;
43345;SDS011;28937;51.160;4.146;2023-02-15T03:23:04;44.70;;;35.25;;
43345;SDS011;28937;51.160;4.146;2023-02-15T03:25:37;42.63;;;33.75;;
43345;SDS011;28937;51.160;4.146;2023-02-15T03:28:07;48.13;;;35.97;;
43345;SDS011;28937;51.160;4.146;2023-02-15T03:30:36;44.42;;;35.08;;
43345;SDS011;28937;51.160;4.146;2023-02-15T03:33:04;48.45;;;34.97;;
43345;SDS011;28937;51.160;4.146;2023-02-15T03:35:33;43.50;;;33.47;;
43345;SDS011;28937;51.160;4.146;2023-02-15T03:38:08;46.20;;;33.85;;
43345;SDS011;28937;51.160;4.146;2023-02-15T03:40:38;44.45;;;33.05;;
43345;SDS011;28937;51.160;4.146;2023-02-15T03:46:07;45.22;;;33.63;;
43345;SDS011;28937;51.160;4.146;2023-02-15T03:51:11;43.88;;;33.05;;
43345;SDS011;28937;51.160;4.146;2023-02-15T03:54:09;42.30;;;32.60;;
43345;SDS011;28937;51.160;4.146;2023-02-15T03:57:07;46.20;;;34.00;;
43345;SDS011;28937;51.160;4.146;2023-02-15T03:59:54;42.88;;;32.75;;
43345;SDS011;28937;51.160;4.146;2023-02-15T04:05:26;45.33;;;33.95;;
43345;SDS011;28937;51.160;4.146;2023-02-15T04:07:51;44.55;;;33.45;;
43345;SDS011;28937;51.160;4.146;2023-02-15T04:10:17;44.75;;;33.63;;
43345;SDS011;28937;51.160;4.146;2023-02-15T04:13:01;43.55;;;32.38;;
43345;SDS011;28937;51.160;4.146;2023-02-15T04:15:27;40.25;;;31.75;;
43345;SDS011;28937;51.160;4.146;2023-02-15T04:18:11;44.72;;;34.17;;
43345;SDS011;28937;51.160;4.146;2023-02-15T04:20:37;47.70;;;32.67;;
43345;SDS011;28937;51.160;4.146;2023-02-15T04:23:21;43.95;;;33.03;;
43345;SDS011;28937;51.160;4.146;2023-02-15T04:26:05;44.03;;;33.38;;
43345;SDS011;28937;51.160;4.146;2023-02-15T04:28:32;44.60;;;33.92;;
43345;SDS011;28937;51.160;4.146;2023-02-15T04:30:58;45.28;;;33.60;;
43345;SDS011;28937;51.160;4.146;2023-02-15T04:33:24;44.65;;;32.88;;
43345;SDS011;28937;51.160;4.146;2023-02-15T04:35:49;46.35;;;33.65;;
43345;SDS011;28937;51.160;4.146;2023-02-15T04:38:15;44.00;;;33.53;;
43345;SDS011;28937;51.160;4.146;2023-02-15T04:40:41;45.88;;;33.15;;
43345;SDS011;28937;51.160;4.146;2023-02-15T04:43:06;40.85;;;31.10;;
43345;SDS011;28937;51.160;4.146;2023-02-15T04:45:32;45.92;;;33.83;;
43345;SDS011;28937;51.160;4.146;2023-02-15T04:47:58;43.65;;;32.95;;
43345;SDS011;28937;51.160;4.146;2023-02-15T04:50:23;47.90;;;34.35;;
43345;SDS011;28937;51.160;4.146;2023-02-15T04:52:49;45.55;;;34.35;;
43345;SDS011;28937;51.160;4.146;2023-02-15T04:55:15;43.72;;;33.03;;
43345;SDS011;28937;51.160;4.146;2023-02-15T04:57:41;45.20;;;32.25;;
43345;SDS011;28937;51.160;4.146;2023-02-15T05:00:06;45.25;;;34.47;;
43345;SDS011;28937;51.160;4.146;2023-02-15T05:02:33;44.70;;;33.63;;
43345;SDS011;28937;51.160;4.146;2023-02-15T05:04:59;44.25;;;33.47;;
43345;SDS011;28937;51.160;4.146;2023-02-15T05:07:25;46.08;;;33.65;;
43345;SDS011;28937;51.160;4.146;2023-02-15T05:09:50;45.50;;;33.03;;
43345;SDS011;28937;51.160;4.146;2023-02-15T05:12:16;45.55;;;32.67;;
43345;SDS011;28937;51.160;4.146;2023-02-15T05:14:42;42.13;;;31.80;;
43345;SDS011;28937;51.160;4.146;2023-02-15T05:17:07;42.20;;;32.03;;
43345;SDS011;28937;51.160;4.146;2023-02-15T05:19:33;41.80;;;31.13;;
43345;SDS011;28937;51.160;4.146;2023-02-15T05:21:59;44.17;;;32.42;;
43345;SDS011;28937;51.160;4.146;2023-02-15T05:24:24;45.35;;;33.38;;
43345;SDS011;28937;51.160;4.146;2023-02-15T05:27:12;44.58;;;33.22;;
43345;SDS011;28937;51.160;4.146;2023-02-15T05:29:56;48.28;;;34.55;;
43345;SDS011;28937;51.160;4.146;2023-02-15T05:32:22;44.65;;;32.97;;
43345;SDS011;28937;51.160;4.146;2023-02-15T05:34:48;44.28;;;32.13;;
43345;SDS011;28937;51.160;4.146;2023-02-15T05:37:13;46.08;;;33.85;;
43345;SDS011;28937;51.160;4.146;2023-02-15T05:39:39;59.70;;;43.90;;
43345;SDS011;28937;51.160;4.146;2023-02-15T05:42:05;55.00;;;38.42;;
43345;SDS011;28937;51.160;4.146;2023-02-15T05:44:31;52.35;;;39.47;;
43345;SDS011;28937;51.160;4.146;2023-02-15T05:46:56;51.88;;;36.95;;
43345;SDS011;28937;51.160;4.146;2023-02-15T05:49:22;53.25;;;35.60;;
43345;SDS011;28937;51.160;4.146;2023-02-15T05:51:48;54.40;;;37.40;;
43345;SDS011;28937;51.160;4.146;2023-02-15T05:54:14;47.22;;;34.92;;
43345;SDS011;28937;51.160;4.146;2023-02-15T05:56:39;49.53;;;35.58;;
43345;SDS011;28937;51.160;4.146;2023-02-15T05:59:05;51.22;;;35.53;;
43345;SDS011;28937;51.160;4.146;2023-02-15T06:01:30;49.75;;;34.97;;
43345;SDS011;28937;51.160;4.146;2023-02-15T06:03:56;50.65;;;35.17;;
43345;SDS011;28937;51.160;4.146;2023-02-15T06:06:22;56.55;;;36.67;;
43345;SDS011;28937;51.160;4.146;2023-02-15T06:08:48;48.05;;;35.75;;
43345;SDS011;28937;51.160;4.146;2023-02-15T06:11:13;50.30;;;35.45;;
43345;SDS011;28937;51.160;4.146;2023-02-15T06:13:39;47.17;;;35.70;;
43345;SDS011;28937;51.160;4.146;2023-02-15T06:16:05;54.35;;;36.70;;
43345;SDS011;28937;51.160;4.146;2023-02-15T06:18:31;51.45;;;35.17;;
43345;SDS011;28937;51.160;4.146;2023-02-15T06:20:57;53.80;;;35.72;;
43345;SDS011;28937;51.160;4.146;2023-02-15T06:23:22;53.40;;;35.67;;
43345;SDS011;28937;51.160;4.146;2023-02-15T06:25:48;49.85;;;34.80;;
43345;SDS011;28937;51.160;4.146;2023-02-15T06:28:14;51.83;;;34.78;;
43345;SDS011;28937;51.160;4.146;2023-02-15T06:30:41;51.47;;;35.97;;
43345;SDS011;28937;51.160;4.146;2023-02-15T06:33:06;47.53;;;33.90;;
43345;SDS011;28937;51.160;4.146;2023-02-15T06:35:32;51.78;;;34.78;;
43345;SDS011;28937;51.160;4.146;2023-02-15T06:37:58;50.70;;;34.47;;
43345;SDS011;28937;51.160;4.146;2023-02-15T06:40:24;52.30;;;35.05;;
43345;SDS011;28937;51.160;4.146;2023-02-15T06:42:49;49.63;;;34.83;;
43345;SDS011;28937;51.160;4.146;2023-02-15T06:45:15;48.17;;;33.08;;
43345;SDS011;28937;51.160;4.146;2023-02-15T06:47:41;50.83;;;32.88;;
43345;SDS011;28937;51.160;4.146;2023-02-15T06:50:07;48.17;;;33.53;;
43345;SDS011;28937;51.160;4.146;2023-02-15T06:52:33;49.28;;;33.45;;
43345;SDS011;28937;51.160;4.146;2023-02-15T06:54:59;45.45;;;32.60;;
43345;SDS011;28937;51.160;4.146;2023-02-15T06:57:25;48.75;;;34.20;;
43345;SDS011;28937;51.160;4.146;2023-02-15T06:59:51;46.72;;;33.47;;
43345;SDS011;28937;51.160;4.146;2023-02-15T07:02:17;45.10;;;32.08;;
43345;SDS011;28937;51.160;4.146;2023-02-15T07:04:43;44.03;;;31.67;;
43345;SDS011;28937;51.160;4.146;2023-02-15T07:07:10;50.50;;;32.97;;
43345;SDS011;28937;51.160;4.146;2023-02-15T07:09:36;52.75;;;35.58;;
43345;SDS011;28937;51.160;4.146;2023-02-15T07:12:02;48.78;;;32.92;;
43345;SDS011;28937;51.160;4.146;2023-02-15T07:14:47;52.05;;;33.47;;
43345;SDS011;28937;51.160;4.146;2023-02-15T07:17:12;50.15;;;33.03;;
43345;SDS011;28937;51.160;4.146;2023-02-15T07:19:38;47.45;;;31.83;;
43345;SDS011;28937;51.160;4.146;2023-02-15T07:22:04;45.95;;;31.95;;
43345;SDS011;28937;51.160;4.146;2023-02-15T07:24:30;47.65;;;34.08;;
43345;SDS011;28937;51.160;4.146;2023-02-15T07:26:56;48.33;;;32.85;;
43345;SDS011;28937;51.160;4.146;2023-02-15T07:29:22;48.53;;;31.70;;
43345;SDS011;28937;51.160;4.146;2023-02-15T07:31:48;45.72;;;31.88;;
43345;SDS011;28937;51.160;4.146;2023-02-15T07:34:14;46.25;;;32.10;;
43345;SDS011;28937;51.160;4.146;2023-02-15T07:36:41;49.92;;;33.00;;
43345;SDS011;28937;51.160;4.146;2023-02-15T07:39:09;47.05;;;33.30;;
43345;SDS011;28937;51.160;4.146;2023-02-15T07:41:35;43.22;;;31.80;;
43345;SDS011;28937;51.160;4.146;2023-02-15T07:44:01;42.97;;;31.80;;
43345;SDS011;28937;51.160;4.146;2023-02-15T07:46:27;45.63;;;30.73;;
43345;SDS011;28937;51.160;4.146;2023-02-15T07:48:52;42.70;;;31.80;;
43345;SDS011;28937;51.160;4.146;2023-02-15T07:51:18;44.60;;;33.10;;
43345;SDS011;28937;51.160;4.146;2023-02-15T07:53:44;45.70;;;33.45;;
43345;SDS011;28937;51.160;4.146;2023-02-15T07:56:11;42.38;;;31.13;;
43345;SDS011;28937;51.160;4.146;2023-02-15T07:58:38;43.50;;;31.95;;
43345;SDS011;28937;51.160;4.146;2023-02-15T08:01:16;49.35;;;33.65;;
43345;SDS011;28937;51.160;4.146;2023-02-15T08:03:49;42.80;;;30.15;;
43345;SDS011;28937;51.160;4.146;2023-02-15T08:06:15;44.60;;;31.50;;
43345;SDS011;28937;51.160;4.146;2023-02-15T08:08:41;43.35;;;32.05;;
43345;SDS011;28937;51.160;4.146;2023-02-15T08:11:14;46.47;;;32.67;;
43345;SDS011;28937;51.160;4.146;2023-02-15T08:13:51;46.03;;;33.22;;
43345;SDS011;28937;51.160;4.146;2023-02-15T08:16:21;49.03;;;33.70;;
43345;SDS011;28937;51.160;4.146;2023-02-15T08:18:51;41.85;;;30.45;;
43345;SDS011;28937;51.160;4.146;2023-02-15T08:21:18;46.15;;;34.15;;
43345;SDS011;28937;51.160;4.146;2023-02-15T08:23:44;47.63;;;33.97;;
43345;SDS011;28937;51.160;4.146;2023-02-15T08:26:10;52.72;;;34.70;;
43345;SDS011;28937;51.160;4.146;2023-02-15T08:28:36;45.17;;;33.35;;
43345;SDS011;28937;51.160;4.146;2023-02-15T08:31:06;46.45;;;33.10;;
43345;SDS011;28937;51.160;4.146;2023-02-15T08:33:36;51.75;;;34.00;;
43345;SDS011;28937;51.160;4.146;2023-02-15T08:36:08;50.30;;;33.90;;
43345;SDS011;28937;51.160;4.146;2023-02-15T08:38:35;49.15;;;33.42;;
43345;SDS011;28937;51.160;4.146;2023-02-15T08:41:21;47.28;;;34.47;;
43345;SDS011;28937;51.160;4.146;2023-02-15T08:43:52;53.03;;;33.20;;
43345;SDS011;28937;51.160;4.146;2023-02-15T08:46:18;45.45;;;33.25;;
43345;SDS011;28937;51.160;4.146;2023-02-15T08:48:45;55.60;;;34.40;;
43345;SDS011;28937;51.160;4.146;2023-02-15T08:53:41;48.50;;;34.65;;
43345;SDS011;28937;51.160;4.146;2023-02-15T08:56:09;45.45;;;31.42;;
43345;SDS011;28937;51.160;4.146;2023-02-15T08:58:36;47.92;;;33.40;;
43345;SDS011;28937;51.160;4.146;2023-02-15T09:01:08;47.75;;;33.20;;
43345;SDS011;28937;51.160;4.146;2023-02-15T09:03:37;45.38;;;32.03;;
43345;SDS011;28937;51.160;4.146;2023-02-15T09:06:03;47.80;;;33.85;;
43345;SDS011;28937;51.160;4.146;2023-02-15T09:08:29;48.53;;;33.95;;
43345;SDS011;28937;51.160;4.146;2023-02-15T09:11:04;46.17;;;32.80;;
43345;SDS011;28937;51.160;4.146;2023-02-15T09:13:38;45.15;;;34.08;;
43345;SDS011;28937;51.160;4.146;2023-02-15T09:16:05;45.85;;;31.88;;
43345;SDS011;28937;51.160;4.146;2023-02-15T09:18:34;45.13;;;32.20;;
43345;SDS011;28937;51.160;4.146;2023-02-15T09:21:06;43.75;;;30.92;;
43345;SDS011;28937;51.160;4.146;2023-02-15T09:23:33;44.75;;;32.53;;
43345;SDS011;28937;51.160;4.146;2023-02-15T09:26:03;44.40;;;32.53;;
43345;SDS011;28937;51.160;4.146;2023-02-15T09:28:30;49.30;;;34.15;;
43345;SDS011;28937;51.160;4.146;2023-02-15T09:31:03;46.80;;;32.60;;
43345;SDS011;28937;51.160;4.146;2023-02-15T09:33:37;41.67;;;31.23;;
43345;SDS011;28937;51.160;4.146;2023-02-15T09:36:04;40.47;;;29.92;;
43345;SDS011;28937;51.160;4.146;2023-02-15T09:38:38;45.40;;;31.88;;
43345;SDS011;28937;51.160;4.146;2023-02-15T09:50:00;29.65;;;21.05;;
43345;SDS011;28937;51.160;4.146;2023-02-15T09:58:14;32.97;;;21.23;;
43345;SDS011;28937;51.160;4.146;2023-02-15T10:01:00;39.42;;;28.77;;
43345;SDS011;28937;51.160;4.146;2023-02-15T10:03:56;37.75;;;25.73;;
43345;SDS011;28937;51.160;4.146;2023-02-15T10:26:19;36.47;;;27.42;;
43345;SDS011;28937;51.160;4.146;2023-02-15T10:31:51;39.72;;;30.75;;
43345;SDS011;28937;51.160;4.146;2023-02-15T11:06:28;39.95;;;28.13;;
43345;SDS011;28937;51.160;4.146;2023-02-15T11:09:03;39.45;;;27.35;;
43345;SDS011;28937;51.160;4.146;2023-02-15T11:11:41;47.10;;;29.45;;
43345;SDS011;28937;51.160;4.146;2023-02-15T11:14:13;42.83;;;28.13;;
43345;SDS011;28937;51.160;4.146;2023-02-15T11:16:46;38.05;;;27.85;;
43345;SDS011;28937;51.160;4.146;2023-02-15T11:22:16;38.17;;;28.48;;
43345;SDS011;28937;51.160;4.146;2023-02-15T11:24:43;37.00;;;24.40;;
43345;SDS011;28937;51.160;4.146;2023-02-15T11:30:04;39.45;;;27.52;;
43345;SDS011;28937;51.160;4.146;2023-02-15T11:32:39;37.90;;;26.65;;
43345;SDS011;28937;51.160;4.146;2023-02-15T11:42:49;37.05;;;28.00;;
43345;SDS011;28937;51.160;4.146;2023-02-15T11:45:22;40.55;;;28.52;;
43345;SDS011;28937;51.160;4.146;2023-02-15T11:47:53;42.80;;;29.08;;
43345;SDS011;28937;51.160;4.146;2023-02-15T11:50:21;38.70;;;29.10;;
43345;SDS011;28937;51.160;4.146;2023-02-15T11:53:19;44.15;;;30.23;;
43345;SDS011;28937;51.160;4.146;2023-02-15T11:55:47;32.35;;;24.20;;
43345;SDS011;28937;51.160;4.146;2023-02-15T12:03:50;33.57;;;22.17;;
43345;SDS011;28937;51.160;4.146;2023-02-15T12:06:24;37.30;;;27.80;;
43345;SDS011;28937;51.160;4.146;2023-02-15T12:11:41;29.80;;;19.33;;
43345;SDS011;28937;51.160;4.146;2023-02-15T12:14:08;32.78;;;20.05;;
43345;SDS011;28937;51.160;4.146;2023-02-15T12:16:41;29.13;;;17.45;;
43345;SDS011;28937;51.160;4.146;2023-02-15T12:19:24;30.58;;;20.23;;
43345;SDS011;28937;51.160;4.146;2023-02-15T12:24:32;33.47;;;22.75;;
43345;SDS011;28937;51.160;4.146;2023-02-15T12:29:42;32.47;;;21.50;;
43345;SDS011;28937;51.160;4.146;2023-02-15T12:32:17;29.73;;;18.25;;
43345;SDS011;28937;51.160;4.146;2023-02-15T12:34:51;26.27;;;17.42;;
43345;SDS011;28937;51.160;4.146;2023-02-15T12:40:00;24.17;;;18.15;;
43345;SDS011;28937;51.160;4.146;2023-02-15T12:42:46;28.65;;;19.95;;
43345;SDS011;28937;51.160;4.146;2023-02-15T12:50:47;26.23;;;18.92;;
43345;SDS011;28937;51.160;4.146;2023-02-15T12:55:49;28.98;;;20.05;;
43345;SDS011;28937;51.160;4.146;2023-02-15T12:58:22;35.90;;;26.30;;
43345;SDS011;28937;51.160;4.146;2023-02-15T13:03:35;38.22;;;27.75;;
43345;SDS011;28937;51.160;4.146;2023-02-15T13:06:03;39.40;;;29.80;;
43345;SDS011;28937;51.160;4.146;2023-02-15T13:08:53;39.95;;;28.02;;
43345;SDS011;28937;51.160;4.146;2023-02-15T13:11:27;32.17;;;22.85;;
43345;SDS011;28937;51.160;4.146;2023-02-15T13:14:03;30.10;;;20.80;;
43345;SDS011;28937;51.160;4.146;2023-02-15T13:16:42;35.20;;;23.67;;
43345;SDS011;28937;51.160;4.146;2023-02-15T13:21:52;32.20;;;24.48;;
43345;SDS011;28937;51.160;4.146;2023-02-15T13:26:48;36.95;;;28.80;;
43345;SDS011;28937;51.160;4.146;2023-02-15T13:29:20;33.92;;;26.35;;
43345;SDS011;28937;51.160;4.146;2023-02-15T13:31:49;45.03;;;29.75;;
43345;SDS011;28937;51.160;4.146;2023-02-15T13:34:22;38.63;;;29.77;;
43345;SDS011;28937;51.160;4.146;2023-02-15T13:36:57;35.10;;;25.15;;
43345;SDS011;28937;51.160;4.146;2023-02-15T13:39:34;42.50;;;30.58;;
43345;SDS011;28937;51.160;4.146;2023-02-15T13:47:40;32.30;;;24.30;;
43345;SDS011;28937;51.160;4.146;2023-02-15T13:53:02;36.03;;;26.25;;
43345;SDS011;28937;51.160;4.146;2023-02-15T13:55:44;37.38;;;28.90;;
43345;SDS011;28937;51.160;4.146;2023-02-15T14:03:59;35.72;;;28.00;;
43345;SDS011;28937;51.160;4.146;2023-02-15T14:10:02;43.70;;;29.20;;
43345;SDS011;28937;51.160;4.146;2023-02-15T14:23:12;29.23;;;23.27;;
43345;SDS011;28937;51.160;4.146;2023-02-15T14:33:56;27.48;;;20.75;;
43345;SDS011;28937;51.160;4.146;2023-02-15T14:36:24;35.30;;;28.27;;
43345;SDS011;28937;51.160;4.146;2023-02-15T14:42:07;28.98;;;20.88;;
43345;SDS011;28937;51.160;4.146;2023-02-15T14:44:49;24.10;;;15.88;;
43345;SDS011;28937;51.160;4.146;2023-02-15T14:47:25;17.95;;;13.52;;
43345;SDS011;28937;51.160;4.146;2023-02-15T14:49:58;23.58;;;14.55;;
43345;SDS011;28937;51.160;4.146;2023-02-15T14:52:26;22.85;;;17.85;;
43345;SDS011;28937;51.160;4.146;2023-02-15T14:54:53;32.92;;;19.08;;
43345;SDS011;28937;51.160;4.146;2023-02-15T14:57:23;17.67;;;12.95;;
43345;SDS011;28937;51.160;4.146;2023-02-15T14:59:53;29.08;;;20.75;;
43345;SDS011;28937;51.160;4.146;2023-02-15T15:05:26;20.27;;;15.02;;
43345;SDS011;28937;51.160;4.146;2023-02-15T15:08:00;23.50;;;19.65;;
43345;SDS011;28937;51.160;4.146;2023-02-15T15:15:56;22.08;;;17.15;;
43345;SDS011;28937;51.160;4.146;2023-02-15T15:18:43;28.80;;;18.75;;
43345;SDS011;28937;51.160;4.146;2023-02-15T15:32:47;24.40;;;18.67;;
43345;SDS011;28937;51.160;4.146;2023-02-15T15:40:41;26.35;;;17.95;;
43345;SDS011;28937;51.160;4.146;2023-02-15T15:43:19;39.33;;;26.95;;
43345;SDS011;28937;51.160;4.146;2023-02-15T15:49:08;16.73;;;10.65;;
43345;SDS011;28937;51.160;4.146;2023-02-15T15:51:41;26.98;;;21.80;;
43345;SDS011;28937;51.160;4.146;2023-02-15T15:54:23;31.52;;;22.15;;
43345;SDS011;28937;51.160;4.146;2023-02-15T15:56:58;30.77;;;23.40;;
43345;SDS011;28937;51.160;4.146;2023-02-15T15:59:32;30.10;;;21.70;;
43345;SDS011;28937;51.160;4.146;2023-02-15T16:02:05;25.17;;;19.10;;
43345;SDS011;28937;51.160;4.146;2023-02-15T16:04:34;31.95;;;23.63;;
43345;SDS011;28937;51.160;4.146;2023-02-15T16:09:43;20.33;;;14.27;;
43345;SDS011;28937;51.160;4.146;2023-02-15T16:12:23;27.98;;;21.52;;
43345;SDS011;28937;51.160;4.146;2023-02-15T16:14:55;35.58;;;23.05;;
43345;SDS011;28937;51.160;4.146;2023-02-15T16:17:23;29.98;;;18.73;;
43345;SDS011;28937;51.160;4.146;2023-02-15T16:19:51;32.15;;;21.08;;
43345;SDS011;28937;51.160;4.146;2023-02-15T16:22:24;30.10;;;20.05;;
43345;SDS011;28937;51.160;4.146;2023-02-15T16:27:25;37.10;;;26.90;;
43345;SDS011;28937;51.160;4.146;2023-02-15T16:32:43;25.27;;;18.70;;
43345;SDS011;28937;51.160;4.146;2023-02-15T16:35:11;31.17;;;23.63;;
43345;SDS011;28937;51.160;4.146;2023-02-15T16:37:40;38.53;;;28.58;;
43345;SDS011;28937;51.160;4.146;2023-02-15T16:40:50;29.77;;;22.85;;
43345;SDS011;28937;51.160;4.146;2023-02-15T16:43:17;33.55;;;22.30;;
43345;SDS011;28937;51.160;4.146;2023-02-15T16:45:46;35.50;;;26.73;;
43345;SDS011;28937;51.160;4.146;2023-02-15T16:48:20;34.10;;;26.85;;
43345;SDS011;28937;51.160;4.146;2023-02-15T16:50:50;32.28;;;25.30;;
43345;SDS011;28937;51.160;4.146;2023-02-15T16:53:19;23.50;;;18.73;;
43345;SDS011;28937;51.160;4.146;2023-02-15T16:55:52;29.77;;;20.83;;
43345;SDS011;28937;51.160;4.146;2023-02-15T16:58:23;24.17;;;19.40;;
43345;SDS011;28937;51.160;4.146;2023-02-15T17:00:57;22.38;;;16.73;;
43345;SDS011;28937;51.160;4.146;2023-02-15T17:03:24;21.57;;;17.10;;
43345;SDS011;28937;51.160;4.146;2023-02-15T17:05:52;23.13;;;17.35;;
43345;SDS011;28937;51.160;4.146;2023-02-15T17:13:36;20.35;;;16.15;;
43345;SDS011;28937;51.160;4.146;2023-02-15T17:21:12;18.95;;;15.43;;
43345;SDS011;28937;51.160;4.146;2023-02-15T17:23:47;22.00;;;15.95;;
43345;SDS011;28937;51.160;4.146;2023-02-15T17:26:17;23.33;;;18.02;;
43345;SDS011;28937;51.160;4.146;2023-02-15T17:28:50;22.77;;;15.60;;
43345;SDS011;28937;51.160;4.146;2023-02-15T17:31:35;22.50;;;13.85;;
43345;SDS011;28937;51.160;4.146;2023-02-15T17:34:01;24.92;;;20.20;;
43345;SDS011;28937;51.160;4.146;2023-02-15T17:36:29;34.47;;;25.50;;
43345;SDS011;28937;51.160;4.146;2023-02-15T17:41:25;22.30;;;15.35;;
43345;SDS011;28937;51.160;4.146;2023-02-15T17:43:55;39.17;;;28.48;;
43345;SDS011;28937;51.160;4.146;2023-02-15T17:46:21;32.00;;;25.50;;
43345;SDS011;28937;51.160;4.146;2023-02-15T17:48:53;34.78;;;27.42;;
43345;SDS011;28937;51.160;4.146;2023-02-15T17:51:20;39.60;;;29.90;;
43345;SDS011;28937;51.160;4.146;2023-02-15T17:53:47;40.88;;;30.77;;
43345;SDS011;28937;51.160;4.146;2023-02-15T17:56:32;39.60;;;30.88;;
43345;SDS011;28937;51.160;4.146;2023-02-15T17:58:58;42.95;;;31.95;;
43345;SDS011;28937;51.160;4.146;2023-02-15T18:01:23;43.13;;;31.77;;
43345;SDS011;28937;51.160;4.146;2023-02-15T18:04:08;39.35;;;29.58;;
43345;SDS011;28937;51.160;4.146;2023-02-15T18:06:58;43.67;;;32.33;;
43345;SDS011;28937;51.160;4.146;2023-02-15T18:09:42;41.38;;;29.17;;
43345;SDS011;28937;51.160;4.146;2023-02-15T18:12:28;39.85;;;29.60;;
43345;SDS011;28937;51.160;4.146;2023-02-15T18:14:58;46.97;;;34.85;;
43345;SDS011;28937;51.160;4.146;2023-02-15T18:17:36;48.92;;;36.55;;
43345;SDS011;28937;51.160;4.146;2023-02-15T18:22:42;38.00;;;29.20;;
43345;SDS011;28937;51.160;4.146;2023-02-15T18:25:12;35.17;;;28.13;;
43345;SDS011;28937;51.160;4.146;2023-02-15T18:27:39;42.38;;;31.50;;
43345;SDS011;28937;51.160;4.146;2023-02-15T18:30:06;42.20;;;30.52;;
43345;SDS011;28937;51.160;4.146;2023-02-15T18:32:33;54.42;;;41.00;;
43345;SDS011;28937;51.160;4.146;2023-02-15T18:35:01;51.50;;;39.90;;
43345;SDS011;28937;51.160;4.146;2023-02-15T18:37:29;51.05;;;39.13;;
43345;SDS011;28937;51.160;4.146;2023-02-15T18:39:57;46.60;;;37.42;;
43345;SDS011;28937;51.160;4.146;2023-02-15T18:45:00;38.25;;;30.20;;
43345;SDS011;28937;51.160;4.146;2023-02-15T18:47:31;45.95;;;35.70;;
43345;SDS011;28937;51.160;4.146;2023-02-15T18:49:57;48.58;;;35.97;;
43345;SDS011;28937;51.160;4.146;2023-02-15T18:52:23;49.28;;;37.92;;
43345;SDS011;28937;51.160;4.146;2023-02-15T18:54:55;48.28;;;37.25;;